Time;durP1;ratioP1;P1;durP2;ratioP2;P2;SDS_P1;SDS_P2;PMS_P1;PMS_P2;Temp;Humidity;BMP_temperature;BMP_pressure;BME280_temperature;BME280_humidity;BME280_pressure;Samples;Min_cycle;Max_cycle;Signal;HPM_P1;HPM_P2
2023/03/06 00:01:21;;;;;;;9.63;4.70;;;1.00;99.90;;;;;;4974938;28;20701;-78
2023/03/06 00:03:48;;;;;;;4.83;4.20;;;1.00;99.90;;;;;;4983957;28;20231;-79
2023/03/06 00:06:15;;;;;;;7.13;4.30;;;1.00;99.90;;;;;;4968284;28;20240;-78
2023/03/06 00:08:41;;;;;;;8.20;4.30;;;0.90;99.90;;;;;;4966945;28;20746;-79
2023/03/06 00:11:13;;;;;;;6.33;4.40;;;1.00;99.90;;;;;;4962798;28;20223;-79
2023/03/06 00:13:40;;;;;;;6.30;4.83;;;0.90;99.90;;;;;;4982656;28;20659;-78
2023/03/06 00:16:07;;;;;;;7.63;5.90;;;1.00;99.90;;;;;;4960517;28;20467;-79
2023/03/06 00:18:34;;;;;;;8.60;6.00;;;1.00;99.90;;;;;;4966716;28;20229;-79
2023/03/06 00:21:01;;;;;;;9.17;5.83;;;1.00;99.90;;;;;;4966594;28;20332;-78
2023/03/06 00:23:28;;;;;;;9.17;5.97;;;1.00;99.90;;;;;;4982956;28;20230;-78
2023/03/06 00:25:55;;;;;;;9.20;6.50;;;0.90;99.90;;;;;;4966376;28;20231;-78
2023/03/06 00:28:23;;;;;;;11.00;7.10;;;0.90;99.90;;;;;;4964325;28;20231;-79
2023/03/06 00:30:50;;;;;;;11.27;7.50;;;0.90;99.90;;;;;;4983352;28;20257;-79
2023/03/06 00:33:17;;;;;;;10.53;6.83;;;0.80;99.90;;;;;;4968662;28;20341;-79
2023/03/06 00:35:44;;;;;;;9.83;7.33;;;0.70;99.90;;;;;;4967584;28;20234;-79
2023/03/06 00:38:12;;;;;;;10.60;7.80;;;0.80;99.90;;;;;;4968408;28;20808;-78
2023/03/06 00:40:39;;;;;;;12.33;7.07;;;0.70;99.90;;;;;;4966370;28;20912;-78
2023/03/06 00:43:06;;;;;;;11.03;7.07;;;0.70;99.90;;;;;;4979349;28;20254;-78
2023/03/06 00:45:34;;;;;;;10.83;7.33;;;0.60;99.90;;;;;;4965843;28;20617;-79
2023/03/06 00:48:01;;;;;;;10.50;7.50;;;0.60;99.90;;;;;;4965372;28;20659;-78
2023/03/06 00:50:27;;;;;;;13.67;8.10;;;0.60;99.90;;;;;;4956887;28;20352;-78
2023/03/06 00:52:54;;;;;;;39.90;9.13;;;0.60;99.90;;;;;;4983196;28;20242;-78
2023/03/06 00:55:21;;;;;;;11.73;7.77;;;0.60;99.90;;;;;;4965075;28;20239;-78
2023/03/06 00:57:48;;;;;;;11.50;8.30;;;0.70;99.90;;;;;;4977509;28;20226;-79
2023/03/06 01:00:16;;;;;;;62.63;10.53;;;0.60;99.90;;;;;;4974547;28;20506;-78
2023/03/06 01:02:44;;;;;;;12.33;8.20;;;0.60;99.90;;;;;;4978701;28;20224;-78
2023/03/06 01:05:13;;;;;;;12.60;9.37;;;0.60;99.90;;;;;;4987934;23;20425;-96
2023/03/06 01:07:40;;;;;;;13.50;9.37;;;0.60;99.90;;;;;;4986402;28;20274;-95
2023/03/06 01:10:08;;;;;;;12.10;8.97;;;0.70;99.90;;;;;;4987163;28;20278;-96
2023/03/06 01:12:35;;;;;;;14.70;9.50;;;0.60;99.90;;;;;;4983133;28;20239;-94
2023/03/06 01:15:02;;;;;;;26.60;9.97;;;0.60;99.90;;;;;;4968529;28;20216;-96
2023/03/06 01:17:29;;;;;;;14.13;10.10;;;0.70;99.90;;;;;;4969104;28;20217;-96
2023/03/06 01:19:59;;;;;;;12.40;8.93;;;0.60;99.90;;;;;;4966851;28;20214;-95
2023/03/06 01:22:25;;;;;;;23.87;10.00;;;0.60;99.90;;;;;;4971692;28;20237;-96
2023/03/06 01:24:53;;;;;;;18.63;9.70;;;0.60;99.90;;;;;;4950191;28;20219;-96
2023/03/06 01:27:23;;;;;;;22.73;9.83;;;0.60;99.90;;;;;;4963613;28;20225;-96
2023/03/06 01:29:49;;;;;;;14.17;9.43;;;0.60;99.90;;;;;;4967309;28;20224;-95
2023/03/06 01:32:16;;;;;;;13.33;9.13;;;0.60;99.90;;;;;;4966967;28;20216;-96
2023/03/06 01:34:43;;;;;;;17.47;9.07;;;0.60;99.90;;;;;;4952084;28;20220;-96
2023/03/06 01:37:12;;;;;;;14.67;9.10;;;0.60;99.90;;;;;;4969527;28;20229;-96
2023/03/06 01:39:38;;;;;;;12.37;8.90;;;0.60;99.90;;;;;;4964556;28;20235;-96
2023/03/06 01:42:06;;;;;;;13.17;8.47;;;0.60;99.90;;;;;;4969543;28;20234;-96
2023/03/06 01:44:34;;;;;;;14.07;9.33;;;0.60;99.90;;;;;;4969523;28;20466;-96
2023/03/06 01:47:01;;;;;;;14.20;8.47;;;0.60;99.90;;;;;;4967061;28;20284;-96
2023/03/06 01:49:32;;;;;;;15.10;8.97;;;0.70;99.90;;;;;;4969867;28;20293;-96
2023/03/06 01:52:03;;;;;;;37.10;9.40;;;0.60;99.90;;;;;;4954126;28;20235;-96
2023/03/06 01:54:35;;;;;;;11.67;7.47;;;0.60;99.90;;;;;;4975139;28;20367;-96
2023/03/06 01:57:07;;;;;;;9.43;6.70;;;0.60;99.90;;;;;;4969099;28;20231;-96
2023/03/06 01:59:38;;;;;;;9.73;6.47;;;0.60;99.90;;;;;;4954736;29;20307;-95
2023/03/06 02:02:15;;;;;;;9.93;6.20;;;0.60;99.90;;;;;;4959941;28;20217;-95
2023/03/06 02:04:44;;;;;;;11.33;6.13;;;0.70;99.90;;;;;;4961569;28;20295;-96
2023/03/06 02:07:12;;;;;;;10.00;5.63;;;0.60;99.90;;;;;;4983199;28;20255;-96
2023/03/06 02:09:40;;;;;;;7.73;5.30;;;0.70;99.90;;;;;;4988184;28;20213;-96
2023/03/06 02:12:11;;;;;;;8.03;4.90;;;0.70;99.90;;;;;;4983354;28;20235;-96
2023/03/06 02:14:39;;;;;;;7.80;4.20;;;0.70;99.90;;;;;;4987026;28;20327;-96
2023/03/06 02:17:07;;;;;;;6.57;4.50;;;0.70;99.90;;;;;;4971473;28;20218;-96
2023/03/06 02:19:45;;;;;;;9.20;4.53;;;0.70;99.90;;;;;;4989164;28;20222;-96
2023/03/06 02:22:12;;;;;;;8.73;4.60;;;0.70;99.90;;;;;;4987311;28;20219;-96
2023/03/06 02:24:48;;;;;;;6.30;4.63;;;0.70;99.90;;;;;;4971152;28;20329;-96
2023/03/06 02:27:18;;;;;;;8.60;5.03;;;0.70;99.90;;;;;;4991469;28;20207;-96
2023/03/06 02:29:47;;;;;;;7.97;5.17;;;0.80;99.90;;;;;;4988409;28;20235;-96
2023/03/06 02:32:16;;;;;;;7.60;4.50;;;0.70;99.90;;;;;;4987529;28;20208;-96
2023/03/06 02:34:57;;;;;;;36.10;6.37;;;0.70;99.90;;;;;;4988304;28;20297;-96
2023/03/06 02:37:34;;;;;;;8.60;4.87;;;0.80;99.90;;;;;;4988431;28;20269;-96
2023/03/06 02:40:08;;;;;;;11.13;4.43;;;0.70;99.90;;;;;;4988582;28;20208;-96
2023/03/06 02:42:36;;;;;;;8.53;5.17;;;0.70;99.90;;;;;;4986118;28;20225;-96
2023/03/06 02:45:08;;;;;;;11.53;5.40;;;0.70;99.90;;;;;;4990997;28;20219;-96
2023/03/06 02:47:35;;;;;;;9.03;4.60;;;0.70;99.90;;;;;;4991694;28;21944;-96
2023/03/06 02:50:02;;;;;;;8.43;4.90;;;0.70;99.90;;;;;;4986731;28;20224;-96
2023/03/06 02:52:29;;;;;;;41.07;6.80;;;0.80;99.90;;;;;;4971607;28;20199;-96
2023/03/06 02:54:56;;;;;;;8.00;5.00;;;0.70;99.90;;;;;;4988842;28;20212;-96
2023/03/06 02:57:23;;;;;;;9.70;5.50;;;0.80;99.90;;;;;;4976859;28;20254;-96
2023/03/06 02:59:53;;;;;;;9.07;5.43;;;0.80;99.90;;;;;;4988635;28;20219;-96
2023/03/06 03:02:23;;;;;;;8.83;5.60;;;0.80;99.90;;;;;;4987072;28;20532;-95
2023/03/06 03:04:50;;;;;;;7.80;5.43;;;0.70;99.90;;;;;;4986334;28;20223;-96
2023/03/06 03:07:18;;;;;;;9.07;5.57;;;0.80;99.90;;;;;;4991503;23;20228;-79
2023/03/06 03:09:45;;;;;;;10.53;5.70;;;0.80;99.90;;;;;;4966935;28;20310;-79
2023/03/06 03:12:13;;;;;;;10.10;6.63;;;0.70;99.90;;;;;;4995020;28;21108;-79
2023/03/06 03:14:40;;;;;;;10.90;6.27;;;0.70;99.90;;;;;;4985249;28;20232;-80
2023/03/06 03:17:09;;;;;;;11.93;6.37;;;0.70;99.90;;;;;;4968802;28;20231;-79
2023/03/06 03:19:36;;;;;;;11.03;6.20;;;0.70;99.90;;;;;;4965242;28;20223;-80
2023/03/06 03:22:03;;;;;;;11.00;7.00;;;0.70;99.90;;;;;;5002307;28;20671;-79
2023/03/06 03:24:30;;;;;;;13.70;7.33;;;0.70;99.90;;;;;;4998598;28;20223;-78
2023/03/06 03:26:56;;;;;;;12.90;6.77;;;0.70;99.90;;;;;;5004052;28;20228;-79
2023/03/06 03:29:24;;;;;;;12.27;7.37;;;0.70;99.90;;;;;;4999304;28;20230;-80
2023/03/06 03:31:52;;;;;;;12.73;7.67;;;0.70;99.90;;;;;;4966880;28;20319;-80
2023/03/06 03:34:21;;;;;;;22.27;9.47;;;0.70;99.90;;;;;;4972135;28;20232;-80
2023/03/06 03:36:47;;;;;;;17.87;9.23;;;0.70;99.90;;;;;;4996469;28;20230;-79
2023/03/06 03:39:16;;;;;;;15.97;8.53;;;0.70;99.90;;;;;;5003467;28;20620;-79
2023/03/06 03:41:43;;;;;;;14.00;8.30;;;0.70;99.90;;;;;;4997775;28;20232;-78
2023/03/06 03:44:10;;;;;;;22.07;9.27;;;0.70;99.90;;;;;;4983776;28;20290;-79
2023/03/06 03:46:37;;;;;;;14.10;9.30;;;0.70;99.90;;;;;;5002928;28;20293;-78
2023/03/06 03:49:08;;;;;;;14.63;9.20;;;0.60;99.90;;;;;;5002970;28;20225;-78
2023/03/06 03:51:37;;;;;;;18.47;10.40;;;0.60;99.90;;;;;;5005261;28;20227;-79
2023/03/06 03:54:05;;;;;;;18.70;10.83;;;0.60;99.90;;;;;;4981448;28;20236;-79
2023/03/06 03:56:39;;;;;;;16.17;10.07;;;0.60;99.90;;;;;;4967802;28;20234;-78
2023/03/06 03:59:11;;;;;;;33.43;10.50;;;0.50;99.90;;;;;;5002604;28;20880;-79
2023/03/06 04:01:46;;;;;;;15.50;10.03;;;0.60;99.90;;;;;;4980287;28;20223;-79
2023/03/06 04:04:13;;;;;;;15.43;9.90;;;0.50;99.90;;;;;;5002127;28;20751;-78
2023/03/06 04:06:43;;;;;;;14.77;9.97;;;0.40;99.90;;;;;;4965701;28;20316;-78
2023/03/06 04:09:10;;;;;;;16.47;10.93;;;0.40;99.90;;;;;;4970047;28;20253;-78
2023/03/06 04:11:37;;;;;;;15.83;10.47;;;0.40;99.90;;;;;;4971413;28;20219;-79
2023/03/06 04:14:07;;;;;;;13.17;8.80;;;0.40;99.90;;;;;;5003252;28;20257;-79
2023/03/06 04:16:34;;;;;;;16.73;10.10;;;0.40;99.90;;;;;;4970620;28;20214;-79
2023/03/06 04:19:01;;;;;;;17.53;11.10;;;0.30;99.90;;;;;;4994166;28;20567;-78
2023/03/06 04:21:29;;;;;;;17.13;11.03;;;0.30;99.90;;;;;;5001416;28;20676;-79
2023/03/06 04:23:57;;;;;;;18.20;11.03;;;0.30;99.90;;;;;;4966662;28;20779;-79
2023/03/06 04:26:24;;;;;;;98.13;16.17;;;0.30;99.90;;;;;;5001095;28;20230;-79
2023/03/06 04:28:51;;;;;;;18.07;11.23;;;0.20;99.90;;;;;;5001485;28;20225;-79
2023/03/06 04:31:19;;;;;;;20.73;12.03;;;0.20;99.90;;;;;;4969036;28;20230;-79
2023/03/06 04:33:46;;;;;;;19.63;12.27;;;0.20;99.90;;;;;;5000148;28;20245;-79
2023/03/06 04:36:24;;;;;;;18.50;11.50;;;0.20;99.90;;;;;;4986444;28;20655;-78
2023/03/06 04:38:52;;;;;;;24.90;12.80;;;0.10;99.90;;;;;;5000814;28;20223;-79
2023/03/06 04:41:20;;;;;;;18.77;12.53;;;0.10;99.90;;;;;;4965182;28;20219;-78
2023/03/06 04:43:47;;;;;;;18.83;12.53;;;0.10;99.90;;;;;;4965748;28;20225;-79
2023/03/06 04:46:14;;;;;;;22.33;12.20;;;0.00;99.90;;;;;;4991691;28;20250;-77
2023/03/06 04:48:41;;;;;;;20.43;12.80;;;0.00;99.90;;;;;;4968455;28;20223;-78
2023/03/06 04:51:08;;;;;;;21.50;13.50;;;0.00;99.90;;;;;;4983804;28;20225;-78
2023/03/06 04:53:34;;;;;;;19.83;12.60;;;0.00;99.90;;;;;;4983188;28;20330;-78
2023/03/06 04:56:01;;;;;;;21.80;13.20;;;-0.10;99.90;;;;;;4981810;28;20258;-78
2023/03/06 04:58:29;;;;;;;23.10;13.43;;;0.00;99.90;;;;;;4984122;28;20230;-79
2023/03/06 05:00:56;;;;;;;24.80;14.77;;;-0.10;99.90;;;;;;4983882;28;20780;-78
2023/03/06 05:03:23;;;;;;;20.07;12.90;;;-0.10;99.90;;;;;;4986123;28;20232;-79
2023/03/06 05:05:49;;;;;;;23.27;13.37;;;-0.10;99.90;;;;;;4986180;28;20234;-80
2023/03/06 05:08:17;;;;;;;23.57;13.67;;;-0.20;99.90;;;;;;4967257;28;20252;-77
2023/03/06 05:10:45;;;;;;;21.03;13.03;;;-0.20;99.90;;;;;;4985616;28;20232;-79
2023/03/06 05:13:12;;;;;;;24.30;12.73;;;-0.20;99.90;;;;;;4985133;28;20741;-80
2023/03/06 05:15:41;;;;;;;25.00;14.30;;;-0.30;99.90;;;;;;5002830;28;21041;-78
2023/03/06 05:18:09;;;;;;;21.30;13.47;;;-0.30;99.90;;;;;;5001605;28;20807;-79
2023/03/06 05:20:35;;;;;;;22.20;13.40;;;-0.40;99.90;;;;;;4987063;28;20951;-78
2023/03/06 05:23:02;;;;;;;22.93;13.73;;;-0.40;99.90;;;;;;4987476;28;20225;-79
2023/03/06 05:25:29;;;;;;;26.13;13.63;;;-0.40;99.90;;;;;;4969750;28;20234;-77
2023/03/06 05:27:57;;;;;;;34.37;14.07;;;-0.50;99.90;;;;;;4985897;28;20239;-80
2023/03/06 05:30:24;;;;;;;25.67;13.80;;;-0.50;99.90;;;;;;4988216;28;20226;-78
2023/03/06 05:32:52;;;;;;;21.90;12.73;;;-0.60;99.90;;;;;;4989591;28;20847;-77
2023/03/06 05:35:21;;;;;;;29.77;13.93;;;-0.60;99.90;;;;;;5005634;28;20781;-78
2023/03/06 05:37:48;;;;;;;22.00;12.20;;;-0.70;99.90;;;;;;4990257;28;20253;-77
2023/03/06 05:40:16;;;;;;;21.93;11.50;;;-0.70;99.90;;;;;;5000734;28;20220;-78
2023/03/06 05:42:43;;;;;;;21.73;11.60;;;-0.70;99.90;;;;;;4987372;28;20238;-77
2023/03/06 05:45:11;;;;;;;18.93;11.10;;;-0.80;99.90;;;;;;4988905;28;20327;-80
2023/03/06 05:47:37;;;;;;;20.17;11.00;;;-0.80;99.90;;;;;;4990637;28;20234;-80
2023/03/06 05:50:07;;;;;;;19.33;11.47;;;-0.90;99.90;;;;;;4990620;28;20322;-80
2023/03/06 05:52:33;;;;;;;20.67;10.73;;;-0.90;99.90;;;;;;4972608;28;20230;-80
2023/03/06 05:55:00;;;;;;;19.13;11.03;;;-0.90;99.90;;;;;;5006366;28;20234;-80
2023/03/06 05:57:28;;;;;;;20.53;10.40;;;-1.00;99.90;;;;;;5007187;28;20225;-80
2023/03/06 05:59:54;;;;;;;21.17;10.80;;;-1.00;99.90;;;;;;4992167;28;20261;-79
2023/03/06 06:02:22;;;;;;;15.77;9.83;;;-1.10;99.90;;;;;;4994049;28;20285;-78
2023/03/06 06:04:49;;;;;;;17.10;9.57;;;-1.10;99.90;;;;;;5008882;28;20309;-81
2023/03/06 06:07:17;;;;;;;16.53;8.80;;;-1.20;99.90;;;;;;4972083;28;20226;-80
2023/03/06 06:09:45;;;;;;;15.37;9.20;;;-1.20;99.90;;;;;;4974559;28;20234;-80
2023/03/06 06:12:13;;;;;;;18.23;9.40;;;-1.30;99.90;;;;;;5006173;28;20343;-81
2023/03/06 06:14:39;;;;;;;16.27;8.60;;;-1.30;99.90;;;;;;5007392;28;20257;-79
2023/03/06 06:17:07;;;;;;;16.77;8.07;;;-1.30;99.90;;;;;;4974123;28;20231;-80
2023/03/06 06:19:33;;;;;;;14.43;8.70;;;-1.40;99.90;;;;;;4997694;28;20318;-80
2023/03/06 06:22:01;;;;;;;19.00;10.10;;;-1.30;99.90;;;;;;4987013;28;20221;-80
2023/03/06 06:24:31;;;;;;;16.37;9.03;;;-1.30;99.90;;;;;;4969220;28;20802;-79
2023/03/06 06:26:59;;;;;;;26.60;10.20;;;-1.40;99.90;;;;;;4971834;28;20229;-80
2023/03/06 06:29:27;;;;;;;40.37;10.47;;;-1.40;99.90;;;;;;4978627;28;20229;-78
2023/03/06 06:31:54;;;;;;;16.77;8.13;;;-1.40;99.90;;;;;;5002063;28;20226;-78
2023/03/06 06:34:22;;;;;;;17.40;8.83;;;-1.30;99.90;;;;;;4999391;28;20238;-78
2023/03/06 06:36:50;;;;;;;14.60;8.30;;;-1.30;99.90;;;;;;5001625;28;20222;-79
2023/03/06 06:39:20;;;;;;;15.93;8.47;;;-1.30;99.90;;;;;;5002162;28;20865;-78
2023/03/06 06:41:50;;;;;;;14.27;8.23;;;-1.30;99.90;;;;;;4998512;28;20290;-78
2023/03/06 06:44:18;;;;;;;20.43;8.27;;;-1.20;99.90;;;;;;4989453;28;20245;-78
2023/03/06 06:46:45;;;;;;;14.17;7.10;;;-1.20;99.90;;;;;;4997654;28;20744;-78
2023/03/06 06:49:13;;;;;;;14.00;7.83;;;-1.10;99.90;;;;;;4992288;28;20313;-78
2023/03/06 06:51:40;;;;;;;36.97;8.83;;;-1.00;99.90;;;;;;4977406;28;20213;-78
2023/03/06 06:54:07;;;;;;;12.27;7.23;;;-0.90;99.90;;;;;;4993113;28;20274;-78
2023/03/06 06:56:34;;;;;;;13.37;7.90;;;-0.80;99.90;;;;;;4993735;28;20625;-79
2023/03/06 06:59:03;;;;;;;14.70;7.97;;;-0.70;99.90;;;;;;4992476;28;20226;-78
2023/03/06 07:01:30;;;;;;;12.63;7.73;;;-0.60;99.90;;;;;;4964617;28;20230;-78
2023/03/06 07:04:00;;;;;;;15.83;8.77;;;-0.50;99.90;;;;;;5000500;28;20230;-79
2023/03/06 07:06:27;;;;;;;15.53;8.20;;;-0.40;99.90;;;;;;4990124;28;20321;-80
2023/03/06 07:08:53;;;;;;;12.80;8.13;;;-0.30;99.90;;;;;;4975522;28;20322;-81
2023/03/06 07:11:20;;;;;;;13.60;8.20;;;-0.10;99.90;;;;;;4988550;28;20221;-81
2023/03/06 07:13:48;;;;;;;14.00;7.93;;;0.00;99.90;;;;;;4989718;28;20312;-82
2023/03/06 07:16:17;;;;;;;12.40;7.30;;;0.10;99.90;;;;;;5006950;28;20238;-82
2023/03/06 07:18:44;;;;;;;12.53;7.93;;;0.20;99.90;;;;;;4989555;28;20234;-81
2023/03/06 07:21:11;;;;;;;14.97;8.43;;;0.30;99.90;;;;;;4973903;28;20291;-80
2023/03/06 07:23:37;;;;;;;14.33;8.87;;;0.30;99.90;;;;;;4990671;28;21002;-81
2023/03/06 07:26:04;;;;;;;14.20;8.87;;;0.40;99.90;;;;;;4994124;28;20399;-81
2023/03/06 07:28:31;;;;;;;11.77;7.63;;;0.50;99.90;;;;;;4971241;28;20724;-81
2023/03/06 07:30:58;;;;;;;11.47;8.00;;;0.50;99.90;;;;;;5007000;28;20230;-81
2023/03/06 07:33:26;;;;;;;13.50;8.27;;;0.60;99.90;;;;;;4987601;28;20223;-83
2023/03/06 07:35:53;;;;;;;13.00;8.80;;;0.70;99.90;;;;;;4991797;28;20317;-80
2023/03/06 07:38:20;;;;;;;14.97;8.43;;;0.70;99.90;;;;;;4987981;28;20215;-78
2023/03/06 07:40:50;;;;;;;13.13;8.07;;;0.80;99.90;;;;;;4977381;28;20256;-77
2023/03/06 07:43:17;;;;;;;136.13;15.20;;;0.90;99.90;;;;;;4970781;28;20225;-79
2023/03/06 07:45:55;;;;;;;14.40;8.70;;;1.00;99.90;;;;;;5001129;28;20222;-80
2023/03/06 07:48:22;;;;;;;50.60;10.17;;;1.10;99.90;;;;;;4989805;28;20223;-79
2023/03/06 07:50:57;;;;;;;16.13;9.20;;;1.20;99.90;;;;;;4990870;28;20219;-81
2023/03/06 07:53:24;;;;;;;14.97;9.60;;;1.30;99.90;;;;;;4989564;28;20216;-79
2023/03/06 07:55:51;;;;;;;12.20;8.57;;;1.50;99.90;;;;;;4989571;28;20294;-81
2023/03/06 07:58:18;;;;;;;20.10;8.60;;;1.60;99.90;;;;;;5002881;28;20251;-78
2023/03/06 08:00:45;;;;;;;11.80;7.47;;;1.80;99.90;;;;;;4986710;28;20224;-80
2023/03/06 08:03:12;;;;;;;12.80;7.93;;;2.00;99.90;;;;;;4970780;28;20231;-79
2023/03/06 08:05:39;;;;;;;12.40;7.93;;;2.20;99.90;;;;;;4993069;28;20242;-79
2023/03/06 08:08:08;;;;;;;9.67;7.13;;;2.40;99.90;;;;;;4991604;28;20228;-79
2023/03/06 08:10:34;;;;;;;14.37;7.40;;;2.50;99.90;;;;;;4994429;28;20598;-81
2023/03/06 08:13:01;;;;;;;10.80;7.23;;;2.70;99.90;;;;;;4986729;28;20235;-80
2023/03/06 08:15:28;;;;;;;10.10;6.23;;;2.80;99.90;;;;;;4999405;28;20237;-79
2023/03/06 08:17:54;;;;;;;11.27;6.40;;;2.90;99.90;;;;;;4984277;28;20229;-79
2023/03/06 08:20:21;;;;;;;9.60;6.80;;;3.00;99.90;;;;;;4996438;28;20235;-81
2023/03/06 08:22:48;;;;;;;10.23;6.30;;;3.10;99.90;;;;;;4998481;28;20228;-80
2023/03/06 08:25:16;;;;;;;9.43;6.20;;;3.10;99.90;;;;;;4964929;28;20230;-80
2023/03/06 08:27:45;;;;;;;11.63;5.90;;;3.10;99.90;;;;;;4982500;28;20234;-79
2023/03/06 08:30:13;;;;;;;7.83;5.93;;;3.10;99.90;;;;;;4968802;28;20229;-78
2023/03/06 08:32:39;;;;;;;9.07;6.13;;;3.20;99.90;;;;;;4996608;28;20223;-79
2023/03/06 08:35:07;;;;;;;10.43;7.13;;;3.20;99.90;;;;;;4965606;28;20247;-79
2023/03/06 08:37:33;;;;;;;11.00;7.33;;;3.30;99.90;;;;;;4998722;28;20226;-78
2023/03/06 08:40:01;;;;;;;10.37;6.60;;;3.30;99.90;;;;;;4983367;28;20231;-77
2023/03/06 08:42:29;;;;;;;10.13;6.90;;;3.30;99.90;;;;;;4983397;28;20232;-81
2023/03/06 08:44:56;;;;;;;12.13;6.73;;;3.20;99.90;;;;;;4982139;28;20233;-78
2023/03/06 08:47:22;;;;;;;11.93;7.10;;;3.10;99.90;;;;;;4983249;28;20238;-81
2023/03/06 08:49:49;;;;;;;11.90;7.23;;;3.00;99.90;;;;;;4984672;28;20238;-79
2023/03/06 08:52:16;;;;;;;10.83;6.80;;;3.00;99.90;;;;;;4964168;28;20223;-78
2023/03/06 08:54:43;;;;;;;13.30;7.43;;;2.90;99.90;;;;;;4969176;28;20226;-81
2023/03/06 08:57:09;;;;;;;12.47;6.87;;;2.80;99.90;;;;;;4975489;28;21013;-79
2023/03/06 08:59:37;;;;;;;11.80;7.20;;;2.80;99.90;;;;;;4984717;28;20334;-78
2023/03/06 09:02:06;;;;;;;10.40;7.43;;;2.80;99.90;;;;;;4987431;28;20230;-82
2023/03/06 09:04:33;;;;;;;13.47;8.03;;;2.80;99.90;;;;;;4979282;28;20252;-79
2023/03/06 09:07:01;;;;;;;12.40;7.67;;;2.80;99.90;;;;;;4977951;28;20749;-78
2023/03/06 09:09:27;;;;;;;13.47;8.20;;;2.80;99.90;;;;;;4981840;28;20278;-78
2023/03/06 09:11:55;;;;;;;12.83;7.87;;;2.80;99.90;;;;;;4982923;28;20440;-79
2023/03/06 09:14:21;;;;;;;12.07;7.80;;;2.90;99.90;;;;;;4964689;28;20214;-80
2023/03/06 09:16:49;;;;;;;12.07;8.27;;;2.90;99.90;;;;;;4979675;28;20230;-79
2023/03/06 09:19:16;;;;;;;13.83;9.10;;;2.90;99.90;;;;;;4981686;28;20244;-79
2023/03/06 09:21:43;;;;;;;13.13;8.63;;;3.00;99.90;;;;;;4984885;28;20224;-79
2023/03/06 09:24:10;;;;;;;12.03;8.60;;;3.00;99.90;;;;;;4976955;28;20229;-83
2023/03/06 09:26:36;;;;;;;13.43;8.83;;;3.10;99.90;;;;;;4983487;28;20315;-79
2023/03/06 09:29:03;;;;;;;11.03;8.10;;;3.10;99.90;;;;;;4998383;28;20214;-79
2023/03/06 09:31:30;;;;;;;14.97;9.00;;;3.10;99.90;;;;;;4990590;28;20233;-80
2023/03/06 09:33:58;;;;;;;13.93;8.87;;;3.10;99.90;;;;;;4985006;28;20250;-81
2023/03/06 09:36:25;;;;;;;13.93;8.73;;;3.10;99.90;;;;;;4989153;28;20228;-78
2023/03/06 09:38:52;;;;;;;11.70;7.27;;;3.20;99.90;;;;;;4988083;28;20316;-80
2023/03/06 09:41:28;;;;;;;12.90;8.47;;;3.20;99.90;;;;;;4963605;28;20236;-81
2023/03/06 09:44:03;;;;;;;11.77;8.00;;;3.30;99.90;;;;;;5000694;28;21008;-79
2023/03/06 09:46:42;;;;;;;11.67;7.27;;;3.40;99.90;;;;;;4983439;28;20330;-83
2023/03/06 09:49:36;;;;;;;10.17;7.43;;;3.60;99.90;;;;;;4999173;28;20551;-82
2023/03/06 09:52:14;;;;;;;10.67;7.13;;;3.90;99.90;;;;;;4985500;28;20222;-81
2023/03/06 09:54:44;;;;;;;12.00;6.67;;;4.30;99.90;;;;;;4970341;28;20227;-83
2023/03/06 09:57:19;;;;;;;10.03;6.00;;;4.80;99.90;;;;;;4972231;28;20224;-82
2023/03/06 09:59:50;;;;;;;8.47;5.20;;;5.30;99.90;;;;;;5001466;28;20243;-83
2023/03/06 10:02:24;;;;;;;6.80;4.87;;;5.90;99.90;;;;;;4997470;28;20235;-81
2023/03/06 10:04:58;;;;;;;11.13;9.70;;;6.40;99.90;;;;;;4966836;28;20240;-80
2023/03/06 10:07:30;;;;;;;7.47;5.50;;;6.80;99.90;;;;;;4987391;28;20250;-80
2023/03/06 10:10:00;;;;;;;7.50;5.00;;;7.30;99.90;;;;;;4968279;28;20232;-81
2023/03/06 10:12:32;;;;;;;7.30;5.20;;;7.50;99.90;;;;;;5003945;28;20233;-81
2023/03/06 10:15:06;;;;;;;6.07;4.70;;;7.60;99.90;;;;;;4981872;28;20609;-80
2023/03/06 10:17:36;;;;;;;9.63;4.23;;;7.60;99.90;;;;;;4984581;28;20228;-81
2023/03/06 10:20:18;;;;;;;5.63;3.47;;;7.40;99.90;;;;;;4985652;28;20236;-80
2023/03/06 10:22:53;;;;;;;6.07;3.30;;;7.10;99.90;;;;;;5002465;28;20233;-81
2023/03/06 10:25:26;;;;;;;6.13;4.03;;;6.90;99.90;;;;;;4988484;28;20230;-82
2023/03/06 10:27:58;;;;;;;6.93;4.63;;;6.60;99.90;;;;;;4983562;28;20233;-81
2023/03/06 10:30:33;;;;;;;6.43;4.90;;;6.40;99.90;;;;;;5000607;28;20720;-82
2023/03/06 10:33:06;;;;;;;6.83;4.67;;;6.30;99.90;;;;;;4983749;28;20633;-77
2023/03/06 10:35:45;;;;;;;8.23;5.10;;;6.30;99.90;;;;;;4978646;28;20299;-76
2023/03/06 10:38:19;;;;;;;6.27;4.97;;;6.30;99.90;;;;;;4995007;28;20265;-80
2023/03/06 10:40:58;;;;;;;7.93;6.00;;;6.40;99.90;;;;;;4984313;28;20288;-77
2023/03/06 10:43:26;;;;;;;7.10;4.47;;;6.60;99.90;;;;;;4996992;28;20256;-78
2023/03/06 10:45:55;;;;;;;9.20;5.77;;;6.80;99.90;;;;;;4984963;28;20227;-77
2023/03/06 10:48:24;;;;;;;8.03;4.90;;;7.00;99.90;;;;;;4997874;28;20227;-77
2023/03/06 10:50:54;;;;;;;6.90;4.73;;;7.30;99.90;;;;;;4980618;28;20272;-78
2023/03/06 10:53:23;;;;;;;7.00;4.70;;;7.50;99.90;;;;;;4974044;28;20232;-77
2023/03/06 10:55:57;;;;;;;6.80;4.33;;;7.60;99.90;;;;;;4949957;23;20270;-80
2023/03/06 10:58:26;;;;;;;7.50;4.67;;;7.70;99.90;;;;;;4940056;28;21308;-80
2023/03/06 11:01:06;;;;;;;6.70;5.00;;;7.70;99.90;;;;;;4944875;28;20648;-80
2023/03/06 11:03:34;;;;;;;9.13;4.93;;;7.60;99.90;;;;;;4925750;23;21300;-80
2023/03/06 11:06:07;;;;;;;8.50;5.30;;;7.50;99.90;;;;;;4945161;28;20221;-80
2023/03/06 11:08:35;;;;;;;7.97;5.47;;;7.40;99.90;;;;;;4949863;28;20652;-81
2023/03/06 11:11:06;;;;;;;8.40;5.60;;;7.20;99.90;;;;;;4943073;28;20958;-80
2023/03/06 11:13:35;;;;;;;8.03;6.47;;;7.00;99.90;;;;;;4962475;28;20228;-78
2023/03/06 11:16:05;;;;;;;7.23;5.73;;;6.80;99.90;;;;;;4945837;28;20314;-80
2023/03/06 11:18:36;;;;;;;11.03;5.93;;;6.60;99.90;;;;;;4947899;28;20228;-80
2023/03/06 11:21:24;;;;;;;8.30;5.37;;;6.40;99.90;;;;;;4941860;28;20229;-80
2023/03/06 11:23:51;;;;;;;6.83;4.77;;;6.30;99.90;;;;;;4959224;28;20220;-77
2023/03/06 11:26:44;;;;;;;7.27;4.50;;;6.20;99.90;;;;;;4950298;28;20246;-77
2023/03/06 11:29:36;;;;;;;6.20;4.00;;;6.10;99.90;;;;;;4938179;23;20279;-77
2023/03/06 11:32:12;;;;;;;8.07;4.57;;;6.00;99.90;;;;;;4942823;28;20734;-80
2023/03/06 11:34:46;;;;;;;8.03;5.20;;;6.00;99.90;;;;;;4936185;28;20242;-77
2023/03/06 11:37:23;;;;;;;6.00;3.77;;;5.90;99.90;;;;;;4923530;28;20770;-77
2023/03/06 11:39:56;;;;;;;5.27;3.70;;;5.90;99.90;;;;;;4938406;23;20249;-77
2023/03/06 11:42:30;;;;;;;4.00;3.37;;;5.80;99.90;;;;;;4946366;28;20711;-83
2023/03/06 11:45:12;;;;;;;3.67;3.10;;;5.80;99.90;;;;;;4958021;28;20284;-78
2023/03/06 11:47:44;;;;;;;4.60;3.10;;;5.70;99.90;;;;;;4948666;28;20734;-80
2023/03/06 11:50:18;;;;;;;4.00;3.33;;;5.80;99.90;;;;;;4972675;23;20261;-80
2023/03/06 11:52:51;;;;;;;5.10;3.83;;;5.80;99.90;;;;;;4979215;28;20228;-79
2023/03/06 11:55:27;;;;;;;5.83;3.70;;;5.80;99.90;;;;;;4976120;28;20245;-79
2023/03/06 11:58:06;;;;;;;3.20;2.90;;;5.80;99.90;;;;;;4980811;28;20230;-79
2023/03/06 12:00:46;;;;;;;4.83;3.53;;;5.80;99.90;;;;;;4966156;28;20287;-78
2023/03/06 12:03:39;;;;;;;7.60;3.20;;;5.80;99.90;;;;;;4984314;28;20229;-78
2023/03/06 12:06:14;;;;;;;6.00;3.10;;;5.70;99.90;;;;;;4990686;28;20238;-77
2023/03/06 12:08:53;;;;;;;5.37;2.80;;;5.60;99.90;;;;;;4982745;28;20234;-76
2023/03/06 12:11:24;;;;;;;4.17;2.87;;;5.60;99.90;;;;;;4982474;28;20225;-80
2023/03/06 12:14:07;;;;;;;6.23;2.67;;;5.50;99.90;;;;;;4985002;28;20626;-79
2023/03/06 12:16:58;;;;;;;4.30;2.57;;;5.40;99.90;;;;;;4977029;28;20230;-79
2023/03/06 12:19:37;;;;;;;3.13;2.33;;;5.50;99.90;;;;;;4980246;28;20249;-80
2023/03/06 12:22:21;;;;;;;4.33;2.73;;;5.50;99.90;;;;;;4994482;28;20876;-78
2023/03/06 12:25:04;;;;;;;3.97;2.50;;;5.50;99.90;;;;;;4976111;28;20269;-78
2023/03/06 12:27:41;;;;;;;6.20;3.00;;;5.50;99.90;;;;;;4974688;28;20234;-77
2023/03/06 12:30:40;;;;;;;7.80;3.37;;;5.60;99.90;;;;;;4977711;28;20229;-76
2023/03/06 12:33:20;;;;;;;2.93;2.20;;;5.60;99.90;;;;;;4971567;28;20226;-79
2023/03/06 12:36:14;;;;;;;3.50;1.90;;;5.70;99.90;;;;;;4973439;28;20765;-79
2023/03/06 12:38:58;;;;;;;3.47;1.70;;;5.80;99.90;;;;;;4979030;28;20310;-80
2023/03/06 12:41:39;;;;;;;3.83;1.80;;;6.00;99.90;;;;;;4978690;28;20236;-79
2023/03/06 12:44:29;;;;;;;4.70;1.50;;;6.20;99.90;;;;;;4953755;23;20234;-80
2023/03/06 12:46:59;;;;;;;2.63;1.70;;;6.40;99.90;;;;;;4925389;28;20256;-77
2023/03/06 12:49:28;;;;;;;3.57;1.67;;;6.60;99.90;;;;;;4925083;28;20241;-78
2023/03/06 12:51:56;;;;;;;3.43;1.07;;;6.70;99.90;;;;;;4953005;23;20253;-76
2023/03/06 12:54:25;;;;;;;4.07;1.20;;;6.90;99.90;;;;;;4942528;28;20316;-77
2023/03/06 12:56:56;;;;;;;4.23;0.97;;;6.90;99.90;;;;;;4929436;29;20705;-80
2023/03/06 13:02:26;;;;;;;3.93;0.83;;;7.00;99.90;;;;;;4963348;28;20231;-80